createdAt,value
2022-08-17T00:02:26.439Z,81.45
2022-08-17T00:04:55.175Z,81.71
2022-08-17T00:07:23.282Z,82.68
2022-08-17T00:09:50.476Z,83.28
2022-08-17T00:12:43.564Z,83.39
2022-08-17T00:15:10.328Z,83.31
2022-08-17T00:17:38.456Z,83.09
2022-08-17T00:20:06.324Z,82.58
2022-08-17T00:22:36.473Z,82.06
2022-08-17T00:25:07.569Z,82.32
2022-08-17T00:27:35.745Z,82.90
2022-08-17T00:30:04.331Z,83.50
2022-08-17T00:33:22.838Z,83.45
2022-08-17T00:35:27.800Z,83.63
2022-08-17T00:37:55.666Z,83.84
2022-08-17T00:40:24.760Z,83.48
2022-08-17T00:42:52.155Z,82.67
2022-08-17T00:45:20.618Z,82.43
2022-08-17T00:47:49.627Z,83.06
2022-08-17T00:50:19.082Z,83.66
2022-08-17T00:52:54.876Z,83.80
2022-08-17T00:55:23.011Z,83.59
2022-08-17T00:57:55.531Z,83.18
2022-08-17T01:00:28.288Z,82.78
2022-08-17T01:03:00.058Z,82.70
2022-08-17T01:05:31.050Z,82.75
2022-08-17T01:08:00.241Z,82.48
2022-08-17T01:10:58.384Z,82.17
2022-08-17T01:13:25.267Z,81.49
2022-08-17T01:15:59.315Z,81.53
2022-08-17T01:18:27.456Z,81.64
2022-08-17T01:20:56.178Z,81.56
2022-08-17T01:23:25.352Z,81.45
2022-08-17T01:25:56.266Z,81.20
2022-08-17T01:28:33.500Z,80.46
2022-08-17T01:31:13.134Z,80.26
2022-08-17T01:33:40.406Z,80.35
2022-08-17T01:36:08.403Z,80.39
2022-08-17T01:38:36.825Z,80.31
2022-08-17T01:41:09.681Z,80.27
2022-08-17T01:43:46.193Z,80.63
2022-08-17T01:46:21.371Z,80.59
2022-08-17T01:48:48.608Z,80.67
2022-08-17T01:51:16.273Z,80.86
2022-08-17T01:53:49.178Z,81.13
2022-08-17T01:56:20.077Z,81.84
2022-08-17T01:58:47.377Z,82.20
2022-08-17T02:01:20.271Z,82.31
2022-08-17T02:03:59.488Z,82.15
2022-08-17T02:06:31.643Z,82.62
2022-08-17T02:09:16.977Z,82.38
2022-08-17T02:11:44.692Z,82.39
2022-08-17T02:14:13.613Z,82.29
2022-08-17T02:16:41.453Z,82.40
2022-08-17T02:19:16.065Z,82.63
2022-08-17T02:21:47.154Z,82.52
2022-08-17T02:25:00.688Z,82.74
2022-08-17T02:27:07.767Z,82.93
2022-08-17T02:29:34.695Z,83.03
2022-08-17T02:32:01.993Z,82.85
2022-08-17T02:34:30.324Z,82.54
2022-08-17T02:36:57.290Z,82.22
2022-08-17T02:39:24.354Z,81.91
2022-08-17T02:42:01.752Z,81.85
2022-08-17T02:44:39.057Z,81.97
2022-08-17T02:47:09.492Z,82.48
2022-08-17T02:49:36.800Z,82.19
2022-08-17T02:52:05.850Z,82.09
2022-08-17T02:54:40.445Z,81.94
2022-08-17T02:57:09.498Z,81.65
2022-08-17T02:59:36.507Z,81.47
2022-08-17T03:02:05.090Z,81.25
2022-08-17T03:04:33.804Z,81.54
2022-08-17T03:07:03.727Z,81.73
2022-08-17T03:09:31.105Z,81.72
2022-08-17T03:12:14.258Z,81.99
2022-08-17T03:14:43.370Z,82.00
2022-08-17T03:17:12.834Z,81.92
2022-08-17T03:19:45.096Z,81.56
2022-08-17T03:22:35.537Z,81.26
2022-08-17T03:24:59.015Z,81.24
2022-08-17T03:27:26.342Z,81.20
2022-08-17T03:29:53.476Z,81.12
2022-08-17T03:32:20.879Z,81.43
2022-08-17T03:34:47.939Z,81.90
2022-08-17T03:37:15.187Z,82.17
2022-08-17T03:39:43.063Z,82.12
2022-08-17T03:42:31.612Z,81.92
2022-08-17T03:45:01.425Z,81.74
2022-08-17T03:47:44.693Z,81.70
2022-08-17T03:50:28.057Z,81.64
2022-08-17T03:53:11.851Z,81.61
2022-08-17T03:55:55.159Z,81.75
2022-08-17T03:58:22.353Z,81.80
2022-08-17T04:00:50.963Z,82.01
2022-08-17T04:03:18.865Z,81.90
2022-08-17T04:05:45.732Z,82.10
2022-08-17T04:08:12.946Z,82.10
2022-08-17T04:10:44.977Z,82.10
2022-08-17T04:13:13.176Z,82.36
2022-08-17T04:15:40.505Z,83.00
2022-08-17T04:18:07.724Z,83.81
2022-08-17T04:20:37.994Z,83.94
2022-08-17T04:23:09.860Z,83.81
2022-08-17T04:25:40.242Z,83.71
2022-08-17T04:28:09.022Z,83.43
2022-08-17T04:30:45.391Z,83.29
2022-08-17T04:33:15.788Z,83.30
2022-08-17T04:35:45.886Z,83.49
2022-08-17T04:38:15.921Z,83.62
2022-08-17T04:40:59.717Z,83.98
2022-08-17T04:43:27.928Z,84.42
2022-08-17T04:45:59.559Z,84.36
2022-08-17T04:48:35.388Z,84.42
2022-08-17T04:51:05.937Z,84.24
2022-08-17T04:53:32.967Z,84.21
2022-08-17T04:55:59.972Z,84.09
2022-08-17T04:58:26.966Z,83.91
2022-08-17T05:00:53.865Z,83.49
2022-08-17T05:03:20.736Z,83.03
2022-08-17T05:05:50.007Z,83.08
2022-08-17T05:08:19.960Z,82.64
2022-08-17T05:10:48.139Z,82.64
2022-08-17T05:13:18.356Z,82.43
2022-08-17T05:15:48.065Z,82.57
2022-08-17T05:18:16.967Z,82.48
2022-08-17T05:20:44.436Z,82.20
2022-08-17T05:23:14.102Z,81.47
2022-08-17T05:25:47.763Z,81.13
2022-08-17T05:28:15.420Z,81.15
2022-08-17T05:30:44.870Z,81.38
2022-08-17T05:33:20.421Z,81.62
2022-08-17T05:35:50.246Z,81.66
2022-08-17T05:38:19.402Z,81.46
2022-08-17T05:40:46.782Z,81.48
2022-08-17T05:43:18.323Z,81.03
2022-08-17T05:46:09.490Z,80.64
2022-08-17T05:48:40.826Z,80.61
2022-08-17T05:51:23.752Z,80.32
2022-08-17T05:54:06.577Z,79.33
2022-08-17T05:56:48.245Z,79.07
2022-08-17T05:59:22.118Z,77.41
2022-08-17T06:02:03.147Z,76.62
2022-08-17T06:04:54.483Z,75.61
2022-08-17T06:07:26.138Z,74.86
2022-08-17T06:09:57.131Z,74.42
2022-08-17T06:12:41.319Z,73.21
2022-08-17T06:15:27.769Z,72.65
2022-08-17T06:17:59.399Z,72.00
2022-08-17T06:20:32.389Z,71.23
2022-08-17T06:23:07.488Z,70.63
2022-08-17T06:25:39.350Z,69.71
2022-08-17T06:28:13.694Z,69.00
2022-08-17T06:30:58.613Z,68.39
2022-08-17T06:33:35.749Z,67.51
2022-08-17T06:36:18.546Z,67.72
2022-08-17T06:39:01.636Z,66.21
2022-08-17T06:41:37.894Z,64.95
2022-08-17T06:44:43.463Z,64.41
2022-08-17T06:47:13.784Z,63.27
2022-08-17T06:49:55.204Z,62.76
2022-08-17T06:52:55.676Z,61.34
2022-08-17T06:55:34.540Z,60.09
2022-08-17T06:58:15.792Z,59.44
2022-08-17T07:00:47.504Z,59.96
2022-08-17T07:03:21.244Z,58.99
2022-08-17T07:05:53.016Z,58.43
2022-08-17T07:08:38.278Z,56.91
2022-08-17T07:11:14.543Z,56.97
2022-08-17T07:13:51.345Z,56.84
2022-08-17T07:16:25.648Z,56.24
2022-08-17T07:18:54.859Z,57.01
2022-08-17T07:21:28.982Z,55.93
2022-08-17T07:24:28.134Z,56.01
2022-08-17T07:27:08.897Z,55.08
2022-08-17T07:29:41.737Z,52.95
2022-08-17T07:32:11.655Z,52.98
2022-08-17T07:35:00.068Z,53.09
2022-08-17T07:37:27.457Z,52.84
2022-08-17T07:40:15.568Z,53.58
2022-08-17T07:42:45.135Z,51.90
2022-08-17T07:45:35.348Z,50.62
2022-08-17T07:48:17.981Z,50.05
2022-08-17T07:50:49.740Z,49.47
2022-08-17T07:53:24.711Z,49.14
2022-08-17T07:55:54.005Z,48.65
2022-08-17T07:58:23.982Z,46.93
2022-08-17T08:01:11.238Z,46.47
2022-08-17T08:03:43.552Z,45.00
2022-08-17T08:06:21.966Z,43.08
2022-08-17T08:08:53.912Z,42.45
2022-08-17T08:11:39.249Z,41.36
2022-08-17T08:14:29.567Z,40.07
2022-08-17T08:17:04.100Z,39.63
2022-08-17T08:19:33.919Z,38.15
2022-08-17T08:22:07.776Z,39.00
2022-08-17T08:25:07.532Z,38.05
2022-08-17T08:27:43.130Z,36.57
2022-08-17T08:30:15.316Z,35.60
2022-08-17T08:32:50.593Z,34.60
2022-08-17T08:35:23.576Z,35.09
2022-08-17T08:37:58.928Z,34.18
2022-08-17T08:40:38.938Z,33.46
2022-08-17T08:43:22.853Z,33.50
2022-08-17T08:45:58.442Z,33.02
2022-08-17T08:48:52.977Z,31.84
2022-08-17T08:51:52.824Z,31.95
2022-08-17T08:54:37.043Z,30.72
2022-08-17T08:57:26.699Z,30.47
2022-08-17T09:00:15.599Z,30.76
2022-08-17T09:03:14.414Z,30.10
2022-08-17T09:05:45.362Z,29.43
2022-08-17T09:08:20.498Z,29.13
2022-08-17T09:11:00.185Z,29.52
2022-08-17T09:13:54.195Z,29.75
2022-08-17T09:16:37.895Z,29.30
2022-08-17T09:19:13.003Z,28.75
2022-08-17T09:21:48.542Z,27.96
2022-08-17T09:24:32.065Z,27.62
2022-08-17T09:27:18.492Z,27.91
2022-08-17T09:29:54.625Z,28.75
2022-08-17T09:32:34.474Z,28.88
2022-08-17T09:35:06.556Z,27.98
2022-08-17T09:37:43.407Z,27.93
2022-08-17T09:40:19.897Z,28.84
2022-08-17T09:42:52.527Z,29.02
2022-08-17T09:45:26.833Z,28.44
2022-08-17T09:48:14.421Z,28.60
2022-08-17T09:51:04.614Z,28.87
2022-08-17T09:53:36.750Z,28.93
2022-08-17T09:56:14.148Z,28.51
2022-08-17T09:59:03.579Z,29.71
2022-08-17T10:01:43.648Z,28.59
2022-08-17T10:04:32.210Z,29.08
2022-08-17T10:07:02.993Z,29.77
2022-08-17T10:09:33.877Z,29.94
2022-08-17T10:12:20.512Z,30.53
2022-08-17T10:15:08.224Z,30.09
2022-08-17T10:17:54.185Z,29.74
2022-08-17T10:20:26.672Z,31.39
2022-08-17T10:23:12.970Z,32.14
2022-08-17T10:26:03.855Z,32.57
2022-08-17T10:28:40.932Z,32.96
2022-08-17T10:31:33.661Z,34.07
2022-08-17T10:34:06.089Z,33.81
2022-08-17T10:36:55.093Z,33.94
2022-08-17T10:39:27.076Z,33.96
2022-08-17T10:42:01.703Z,34.70
2022-08-17T10:44:45.701Z,34.45
2022-08-17T10:47:16.889Z,35.12
2022-08-17T10:49:49.717Z,35.35
2022-08-17T10:52:20.685Z,35.61
2022-08-17T10:55:09.048Z,36.41
2022-08-17T10:57:39.302Z,38.17
2022-08-17T11:00:16.127Z,37.48
2022-08-17T11:02:51.361Z,38.12
2022-08-17T11:05:42.949Z,36.77
2022-08-17T11:08:18.190Z,36.46
2022-08-17T11:10:53.610Z,37.13
2022-08-17T11:13:22.931Z,36.27
2022-08-17T11:16:08.539Z,36.92
2022-08-17T11:18:42.865Z,37.00
2022-08-17T11:21:16.610Z,35.91
2022-08-17T11:24:02.963Z,35.36
2022-08-17T11:26:34.889Z,35.45
2022-08-17T11:29:09.735Z,36.18
2022-08-17T11:31:45.172Z,35.40
2022-08-17T11:34:19.823Z,35.77
2022-08-17T11:37:01.820Z,35.08
2022-08-17T11:39:44.546Z,34.58
2022-08-17T11:42:28.381Z,34.55
2022-08-17T11:44:58.792Z,33.51
2022-08-17T11:48:23.910Z,33.59
2022-08-17T11:51:30.035Z,33.01
2022-08-17T11:54:30.603Z,31.40
2022-08-17T11:56:50.431Z,30.35
2022-08-17T11:59:33.316Z,29.91
2022-08-17T12:02:02.872Z,29.79
2022-08-17T12:04:33.334Z,29.91
2022-08-17T12:07:17.781Z,29.66
2022-08-17T12:09:48.657Z,30.23
2022-08-17T12:12:19.433Z,30.48
2022-08-17T12:15:10.708Z,29.61
2022-08-17T12:17:52.275Z,29.15
2022-08-17T12:20:33.074Z,29.23
2022-08-17T12:23:20.195Z,28.37
2022-08-17T12:25:56.959Z,28.29
2022-08-17T12:28:28.089Z,27.64
2022-08-17T12:31:00.471Z,26.49
2022-08-17T12:33:28.974Z,25.96
2022-08-17T12:36:00.946Z,24.94
2022-08-17T12:38:32.373Z,25.08
2022-08-17T12:41:21.994Z,26.48
2022-08-17T12:43:58.829Z,27.15
2022-08-17T12:46:25.824Z,27.34
2022-08-17T12:48:59.061Z,27.02
2022-08-17T12:51:29.378Z,25.90
2022-08-17T12:53:56.402Z,26.18
2022-08-17T12:56:23.555Z,26.06
2022-08-17T12:58:54.639Z,25.03
2022-08-17T13:01:25.199Z,25.03
2022-08-17T13:03:55.383Z,24.31
2022-08-17T13:06:33.907Z,23.84
2022-08-17T13:09:35.594Z,24.32
2022-08-17T13:12:05.175Z,23.45
2022-08-17T13:14:33.426Z,22.77
2022-08-17T13:17:08.334Z,22.89
2022-08-17T13:19:48.179Z,22.57
2022-08-17T13:22:15.066Z,21.81
2022-08-17T13:24:53.263Z,22.58
2022-08-17T13:27:24.031Z,21.98
2022-08-17T13:29:55.932Z,22.01
2022-08-17T13:32:33.603Z,21.74
2022-08-17T13:35:14.139Z,21.97
2022-08-17T13:37:59.203Z,22.69
2022-08-17T13:40:30.974Z,24.14
2022-08-17T13:42:58.654Z,25.79
2022-08-17T13:45:36.103Z,27.50
2022-08-17T13:48:19.864Z,26.27
2022-08-17T13:51:05.915Z,27.99
2022-08-17T13:53:51.402Z,27.68
2022-08-17T13:56:50.120Z,26.67
2022-08-17T13:59:52.681Z,26.75
2022-08-17T14:02:17.592Z,24.82
2022-08-17T14:04:46.104Z,24.46
2022-08-17T14:07:13.614Z,24.46
2022-08-17T14:09:47.355Z,24.18
2022-08-17T14:12:17.825Z,24.12
2022-08-17T14:14:44.934Z,23.79
2022-08-17T14:17:13.144Z,22.84
2022-08-17T14:19:40.238Z,23.10
2022-08-17T14:22:11.773Z,24.56
2022-08-17T14:24:44.747Z,25.03
2022-08-17T14:27:12.157Z,25.65
2022-08-17T14:29:41.369Z,25.61
2022-08-17T14:32:18.873Z,25.49
2022-08-17T14:34:47.419Z,26.56
2022-08-17T14:37:14.306Z,27.52
2022-08-17T14:39:41.193Z,29.21
2022-08-17T14:42:08.690Z,30.47
2022-08-17T14:44:37.028Z,30.78
2022-08-17T14:47:05.050Z,31.50
2022-08-17T14:49:32.026Z,33.05
2022-08-17T14:52:00.546Z,32.47
2022-08-17T14:54:33.524Z,33.04
2022-08-17T14:57:23.322Z,32.69
2022-08-17T14:59:54.811Z,32.68
2022-08-17T15:02:29.544Z,32.84
2022-08-17T15:05:05.404Z,33.91
2022-08-17T15:07:32.429Z,33.77
2022-08-17T15:10:02.512Z,34.68
2022-08-17T15:12:34.054Z,34.01
2022-08-17T15:15:04.771Z,33.98
2022-08-17T15:17:44.281Z,33.81
2022-08-17T15:20:18.112Z,34.39
2022-08-17T15:22:49.923Z,34.89
2022-08-17T15:25:19.119Z,34.54
2022-08-17T15:27:47.584Z,34.56
2022-08-17T15:30:15.696Z,35.20
2022-08-17T15:32:51.263Z,35.99
2022-08-17T15:35:27.416Z,36.40
2022-08-17T15:37:58.451Z,36.34
2022-08-17T15:40:25.499Z,36.22
2022-08-17T15:42:53.065Z,36.24
2022-08-17T15:45:24.996Z,36.21
2022-08-17T15:47:52.813Z,36.45
2022-08-17T15:50:20.140Z,36.46
2022-08-17T15:52:47.739Z,37.07
2022-08-17T15:55:15.277Z,36.91
2022-08-17T15:57:42.449Z,37.55
2022-08-17T16:00:10.198Z,37.31
2022-08-17T16:03:45.049Z,37.71
2022-08-17T16:05:30.228Z,38.80
2022-08-17T16:07:59.733Z,39.27
2022-08-17T16:10:34.734Z,39.42
2022-08-17T16:13:04.475Z,40.04
2022-08-17T16:15:32.338Z,40.13
2022-08-17T16:17:59.320Z,39.97
2022-08-17T16:20:26.523Z,40.21
2022-08-17T16:22:54.173Z,40.81
2022-08-17T16:25:38.833Z,40.99
2022-08-17T16:28:17.107Z,41.95
2022-08-17T16:30:44.090Z,41.87
2022-08-17T16:33:11.728Z,42.67
2022-08-17T16:35:39.031Z,42.89
2022-08-17T16:38:07.226Z,42.68
2022-08-17T16:40:36.014Z,43.36
2022-08-17T16:43:07.087Z,43.57
2022-08-17T16:45:36.793Z,43.59
2022-08-17T16:48:04.551Z,43.61
2022-08-17T16:50:33.929Z,44.55
2022-08-17T16:53:06.837Z,44.33
2022-08-17T16:55:35.825Z,44.74
2022-08-17T16:58:05.488Z,45.29
2022-08-17T17:00:33.876Z,45.44
2022-08-17T17:03:20.543Z,46.75
2022-08-17T17:06:07.473Z,48.32
2022-08-17T17:08:44.393Z,49.64
2022-08-17T17:11:34.211Z,50.95
2022-08-17T17:14:05.655Z,53.01
2022-08-17T17:16:45.765Z,52.98
2022-08-17T17:19:34.835Z,55.17
2022-08-17T17:22:20.398Z,55.94
2022-08-17T17:24:55.734Z,55.05
2022-08-17T17:27:39.994Z,55.37
2022-08-17T17:30:12.435Z,55.69
2022-08-17T17:32:46.120Z,56.03
2022-08-17T17:35:21.001Z,56.96
2022-08-17T17:37:50.331Z,57.80
2022-08-17T17:40:23.238Z,58.68
2022-08-17T17:43:09.475Z,59.17
2022-08-17T17:45:53.130Z,59.72
2022-08-17T17:48:20.260Z,60.09
2022-08-17T17:51:02.482Z,61.33
2022-08-17T17:53:44.537Z,61.85
2022-08-17T17:56:40.270Z,61.54
2022-08-17T17:59:26.887Z,61.08
2022-08-17T18:02:09.837Z,60.39
2022-08-17T18:04:46.248Z,60.80
2022-08-17T18:07:37.303Z,61.37
2022-08-17T18:10:19.561Z,61.71
2022-08-17T18:13:14.179Z,61.78
2022-08-17T18:15:51.334Z,62.07
2022-08-17T18:18:19.635Z,61.98
2022-08-17T18:20:56.050Z,62.21
2022-08-17T18:23:27.950Z,62.96
2022-08-17T18:25:58.280Z,63.41
2022-08-17T18:28:34.546Z,63.91
2022-08-17T18:31:09.784Z,64.71
2022-08-17T18:33:39.537Z,64.98
2022-08-17T18:36:07.498Z,65.22
2022-08-17T18:38:37.653Z,65.68
2022-08-17T18:41:19.433Z,65.83
2022-08-17T18:44:01.510Z,66.28
2022-08-17T18:46:35.455Z,66.70
2022-08-17T18:49:08.048Z,67.20
2022-08-17T18:51:42.336Z,67.41
2022-08-17T18:54:22.087Z,67.71
2022-08-17T18:56:50.740Z,68.20
2022-08-17T18:59:34.046Z,68.30
2022-08-17T19:02:27.321Z,68.60
2022-08-17T19:05:07.905Z,68.96
2022-08-17T19:07:38.215Z,69.41
2022-08-17T19:10:21.267Z,69.69
2022-08-17T19:12:55.546Z,70.01
2022-08-17T19:15:34.834Z,70.78
2022-08-17T19:18:05.822Z,70.78
2022-08-17T19:20:39.003Z,71.55
2022-08-17T19:23:24.339Z,72.12
2022-08-17T19:25:57.915Z,73.06
2022-08-17T19:28:32.717Z,73.63
2022-08-17T19:31:08.498Z,74.01
2022-08-17T19:33:35.572Z,73.86
2022-08-17T19:36:10.147Z,74.04
2022-08-17T19:38:53.202Z,74.47
2022-08-17T19:41:33.475Z,74.35
2022-08-17T19:44:23.942Z,74.73
2022-08-17T19:47:13.637Z,75.64
2022-08-17T19:49:46.799Z,75.90
2022-08-17T19:52:22.614Z,75.83
2022-08-17T19:54:59.101Z,76.05
2022-08-17T19:57:37.159Z,76.20
2022-08-17T20:00:15.716Z,76.42
2022-08-17T20:02:48.723Z,76.89
2022-08-17T20:05:23.073Z,77.30
2022-08-17T20:08:09.135Z,77.76
2022-08-17T20:10:55.497Z,77.86
2022-08-17T20:13:32.969Z,77.74
2022-08-17T20:16:02.565Z,77.85
2022-08-17T20:18:37.954Z,78.27
2022-08-17T20:21:27.017Z,78.26
2022-08-17T20:24:03.924Z,78.28
2022-08-17T20:26:49.087Z,78.41
2022-08-17T20:29:31.940Z,78.12
2022-08-17T20:32:17.763Z,77.52
2022-08-17T20:34:47.739Z,77.67
2022-08-17T20:37:15.371Z,78.34
2022-08-17T20:39:44.621Z,78.38
2022-08-17T20:42:29.438Z,78.22
2022-08-17T20:45:01.933Z,78.94
2022-08-17T20:47:35.474Z,79.51
2022-08-17T20:50:10.455Z,79.33
2022-08-17T20:52:56.183Z,79.34
2022-08-17T20:55:51.543Z,79.59
2022-08-17T21:00:41.283Z,80.02
2022-08-17T21:03:24.270Z,80.02
2022-08-17T21:05:59.889Z,80.67
2022-08-17T21:08:53.876Z,81.03
2022-08-17T21:11:57.304Z,80.78
2022-08-17T21:14:20.255Z,81.43
2022-08-17T21:17:02.852Z,80.86
2022-08-17T21:20:10.332Z,80.83
2022-08-17T21:23:02.335Z,81.13
2022-08-17T21:25:46.594Z,81.32
2022-08-17T21:28:34.141Z,81.24
2022-08-17T21:31:09.017Z,81.02
2022-08-17T21:33:39.226Z,80.63
2022-08-17T21:36:17.274Z,80.60
2022-08-17T21:38:48.045Z,80.84
2022-08-17T21:41:22.857Z,80.50
2022-08-17T21:43:51.570Z,80.42
2022-08-17T21:46:30.657Z,80.53
2022-08-17T21:49:12.243Z,80.42
2022-08-17T21:51:51.971Z,80.50
2022-08-17T21:54:38.913Z,80.37
2022-08-17T21:57:15.742Z,80.12
2022-08-17T21:59:44.470Z,79.93
2022-08-17T22:02:22.394Z,79.89
2022-08-17T22:05:07.365Z,79.98
2022-08-17T22:07:42.964Z,79.85
2022-08-17T22:10:29.949Z,79.89
2022-08-17T22:13:16.521Z,79.90
2022-08-17T22:15:47.708Z,80.15
2022-08-17T22:18:20.675Z,80.63
2022-08-17T22:20:51.796Z,81.52
2022-08-17T22:23:42.679Z,81.17
2022-08-17T22:26:13.461Z,80.65
2022-08-17T22:28:45.782Z,81.23
2022-08-17T22:31:18.388Z,81.72
2022-08-17T22:33:50.188Z,82.20
2022-08-17T22:36:25.147Z,82.32
2022-08-17T22:38:57.478Z,81.78
2022-08-17T22:41:42.260Z,81.09
2022-08-17T22:44:36.521Z,81.01
2022-08-17T22:47:11.315Z,81.63
2022-08-17T22:49:53.236Z,82.20
2022-08-17T22:52:29.942Z,82.51
2022-08-17T22:55:29.706Z,82.47
2022-08-17T22:58:13.256Z,82.51
2022-08-17T23:00:45.306Z,82.48
2022-08-17T23:03:19.141Z,82.11
2022-08-17T23:06:03.578Z,82.60
2022-08-17T23:08:31.577Z,82.74
2022-08-17T23:11:00.489Z,82.45
2022-08-17T23:13:28.290Z,82.31
2022-08-17T23:15:55.173Z,82.46
2022-08-17T23:18:23.571Z,83.17
2022-08-17T23:20:50.728Z,83.18
2022-08-17T23:23:23.399Z,82.97
2022-08-17T23:25:50.831Z,82.11
2022-08-17T23:28:19.197Z,81.48
2022-08-17T23:30:48.578Z,81.32
2022-08-17T23:33:26.784Z,82.17
2022-08-17T23:35:54.265Z,82.71
2022-08-17T23:38:22.104Z,83.66
2022-08-17T23:40:49.072Z,83.93
2022-08-17T23:43:23.732Z,83.62
2022-08-17T23:45:53.669Z,83.77
2022-08-17T23:48:36.031Z,83.31
2022-08-17T23:51:08.843Z,83.34
2022-08-17T23:53:40.399Z,83.43
2022-08-17T23:56:11.156Z,83.09
2022-08-17T23:58:42.435Z,83.16
